METAR Data
IDs: Format: Raw Decoded Include TAF

Data at: 1758 UTC 16 Oct 2021

KBKS 161755Z AUTO 01014G19KT 10SM BKN090 21/06 A3029 RMK AO2 T02130064 10214 20145
KBKS 161735Z AUTO 02014G20KT 10SM OVC090 21/07 A3031 RMK AO2 T02100065
KBKS 161715Z AUTO 02012G20KT 10SM SCT080 OVC100 21/08 A3031 RMK AO2 T02130077
KBKS 161655Z AUTO 02012G22KT 10SM OVC100 20/07 A3031 RMK AO2 T02040071
KBKS 161635Z AUTO 03013G18KT 10SM SCT050 OVC090 19/08 A3032 RMK AO2 T01910076
KBKS 161615Z AUTO 01015G23KT 10SM OVC050 19/08 A3032 RMK AO2 T01860075
KBKS 161555Z AUTO 01011KT 10SM OVC050 18/09 A3032 RMK AO2 T01760089
KBKS 161535Z AUTO 36011G16KT 10SM OVC050 17/09 A3032 RMK AO2 T01710092
KBKS 161515Z AUTO 36011G16KT 10SM OVC050 16/09 A3031 RMK AO2 T01600092
KBKS 161455Z AUTO 36011G19KT 10SM SCT050 OVC060 16/09 A3031 RMK AO2 T01600086
KBKS 161435Z AUTO 01012G18KT 10SM BKN070 OVC080 15/09 A3030 RMK AO2 T01520089
KBKS 161415Z AUTO 01012G19KT 10SM OVC055 15/09 A3029 RMK AO2 T01500094
KBKS 161355Z AUTO 36011G20KT 10SM OVC055 16/09 A3028 RMK AO2 T01550094
KBKS 161335Z AUTO 01015G21KT 10SM OVC055 17/09 A3027 RMK AO2 T01650093
KBKS 161315Z AUTO 02013G20KT 10SM OVC055 17/09 A3026 RMK AO2 T01700085
KBKS 161255Z AUTO 02013G18KT 10SM OVC055 17/09 A3024 RMK AO2 T01700091
KBKS 161235Z AUTO 01011G19KT 10SM OVC055 17/10 A3023 RMK AO2 T01740096
KBKS 161215Z AUTO 02012G22KT 10SM OVC055 18/09 A3022 RMK AO2 T01780091
KBKS 161155Z AUTO 02012G16KT 10SM OVC055 18/10 A3021 RMK AO2 70005 T01800096 10205 20180
KBKS 161135Z AUTO 02011G23KT 10SM OVC049 18/10 A3020 RMK AO2 T01810097
KBKS 161115Z AUTO 02014G22KT 10SM OVC049 19/10 A3019 RMK AO2 T01850103
KBKS 161055Z AUTO 02012G22KT 10SM BKN049 OVC095 19/11 A3018 RMK AO2 T01860106
KBKS 161035Z AUTO 02014G21KT 10SM SCT047 BKN055 BKN080 19/12 A3017 RMK AO2 T01850116
KBKS 161015Z AUTO 00000KT 10SM BKN047 BKN080 19/13 A3017 RMK AO2 T01880125
KBKS 160955Z AUTO 01010G19KT 10SM OVC045 19/13 A3017 RMK AO2 T01900129
KBKS 160935Z AUTO 02011G21KT 10SM OVC043 19/13 A3015 RMK AO2 T01920130
KBKS 160915Z AUTO 01011G17KT 10SM BKN043 OVC120 19/14 A3014 RMK AO2 T01930135
KBKS 160855Z AUTO 02011G19KT 10SM BKN043 SCT055 OVC120 20/14 A3013 RMK AO2 T01950138
KBKS 160835Z AUTO 01010G17KT 10SM OVC043 20/15 A3013 RMK AO2 T01960145
KBKS 160815Z AUTO 02011G19KT 10SM OVC041 20/15 A3013 RMK AO2 T02000150
KBKS 160755Z AUTO 03012KT 10SM OVC041 20/16 A3012 RMK AO2 T02000157
KBKS 160735Z AUTO 01011G15KT 10SM SCT041 BKN050 OVC110 20/16 A3013 RMK AO2 T02020160
KBKS 160715Z AUTO 03012G17KT 10SM SCT038 BKN055 OVC110 21/16 A3012 RMK AO2 T02050155
KBKS 160655Z AUTO 02013G19KT 10SM BKN038 BKN055 BKN110 20/16 A3012 RMK AO2 T02030164
KBKS 160635Z AUTO 01010KT 20/18 A3012 RMK AO2 T02000179
KBKS 160615Z AUTO 03006KT 10SM CLR 20/18 A3011 RMK AO2 T02000177
KBKS 160555Z AUTO 02006KT 10SM CLR 20/17 A3010 RMK AO2 T02030172 10237 20202
KBKS 160535Z AUTO 04009G14KT 10SM CLR 21/17 A3009 RMK AO2 T02050173
KBKS 160515Z AUTO 03010KT 10SM CLR 21/18 A3009 RMK AO2 T02050184
KBKS 160455Z AUTO 03007G14KT 10SM CLR 21/20 A3008 RMK AO2 T02050196
KBKS 160435Z AUTO 02011KT 10SM SCT037 SCT060 BKN070 21/20 A3007 RMK AO2 T02100200
KBKS 160415Z AUTO 01009G14KT 10SM SCT033 OVC042 21/20 A3008 RMK AO2 T02130203
KBKS 160355Z AUTO 03010G18KT 10SM SCT021 SCT029 OVC040 22/20 A3008 RMK AO2 T02150203 403280213
KBKS 160335Z AUTO 03012G27KT 10SM BKN021 BKN029 OVC034 22/21 A3007 RMK AO2 T02210207
KBKS 160315Z AUTO 02010KT 10SM SCT019 BKN038 24/23 A3005 RMK AO2 T02360232
KBKS 160255Z AUTO 33005KT 7SM CLR 23/23 A3002 RMK AO2 T02300227
KBKS 160235Z AUTO 36004KT 7SM CLR 23/23 A3000 RMK AO2 T02290227
KBKS 160215Z AUTO 00000KT 7SM CLR 23/23 A2998 RMK AO2 T02280226
KBKS 160155Z AUTO 34004KT 7SM CLR 23/23 A2997 RMK AO2 T02260225
KBKS 160135Z AUTO 00000KT 7SM CLR 23/23 A2996 RMK AO2 T02260226
KBKS 160115Z AUTO 00000KT 7SM CLR 23/23 A2995 RMK AO2 T02250225
KBKS 160055Z AUTO 25003KT 7SM CLR 23/23 A2995 RMK AO2 T02290227
KBKS 160035Z AUTO 00000KT 10SM CLR 23/22 A2993 RMK AO2 T02250224
KBKS 160015Z AUTO 08004KT 10SM SCT100 SCT120 23/22 A2992 RMK AO2 T02250221
KBKS 152355Z AUTO 09003KT 10SM CLR 23/22 A2992 RMK AO2 P0003 60005 T02270222 10328 20225
KBKS 152335Z AUTO 29003KT 10SM SCT026 SCT037 SCT055 23/22 A2990 RMK AO2 P0003 T02270221
KBKS 152315Z AUTO 24006KT 7SM SCT027 BKN035 OVC065 23/22 A2990 RMK AO2 P0003 T02280221
KBKS 152255Z AUTO 29012G20KT 10SM SCT035 BKN049 OVC065 25/22 A2992 RMK AO2 T02450216
KBKS 152235Z AUTO 33010G18KT 10SM SCT047 SCT060 OVC120 27/21 A2991 RMK AO2 T02650207
KBKS 152215Z AUTO 08008KT 10SM BKN120 30/23 A2988 RMK AO2 T03030226
KBKS 152155Z AUTO 08005KT 10SM BKN120 30/23 A2987 RMK AO2 T03040230
KBKS 152135Z AUTO 09006KT 10SM SCT120 31/23 A2988 RMK AO2 T03060227
KBKS 152115Z AUTO 09007KT 10SM CLR 31/23 A2987 RMK AO2 T03130227
KBKS 152055Z AUTO 10003KT 10SM SCT049 32/21 A2986 RMK AO2 T03180214
KBKS 152035Z AUTO 10006KT 10SM SCT049 32/22 A2986 RMK AO2 T03240219
KBKS 152015Z AUTO 07005KT 10SM CLR 32/22 A2987 RMK AO2 T03150223
KBKS 151955Z AUTO 07004KT 10SM SCT070 32/22 A2988 RMK AO2 T03160223
KBKS 151935Z AUTO 12005KT 10SM SCT041 SCT050 BKN070 32/23 A2988 RMK AO2 T03150227
KBKS 151915Z AUTO 00000KT 10SM BKN041 BKN055 BKN110 32/23 A2989 RMK AO2 T03160226
KBKS 151855Z AUTO 10004KT 10SM SCT039 BKN055 BKN075 32/23 A2990 RMK AO2 T03170229
KBKS 151835Z AUTO 10005KT 10SM SCT037 SCT046 BKN050 31/23 A2991 RMK AO2 T03100234
KBKS 151815Z AUTO 17004KT 10SM SCT032 BKN040 31/23 A2991 RMK AO2 T03070232
KBKS 151755Z AUTO 16004KT 10SM SCT032 BKN038 BKN045 31/24 A2992 RMK AO2 T03050238 10305 20225
KBKS 151735Z AUTO 17005KT 10SM SCT030 SCT038 30/24 A2993 RMK AO2 T02980235
KBKS 151715Z AUTO 14004KT 10SM SCT028 BKN034 BKN040 29/23 A2993 RMK AO2 T02940234
KBKS 151655Z AUTO 18007KT 10SM SCT026 BKN034 BKN041 29/24 A2993 RMK AO2 T02900238
KBKS 151635Z AUTO 16006KT 10SM SCT022 SCT034 SCT080 29/24 A2994 RMK AO2 T02870238
KBKS 151615Z AUTO 16008KT 10SM SCT020 SCT027 BKN034 29/24 A2994 RMK AO2 T02890240
KBKS 151555Z AUTO 16008KT 10SM SCT016 SCT020 BKN032 29/24 A2994 RMK AO2 T02870242
KBKS 151535Z AUTO 15007KT 130V200 10SM BKN014 BKN022 BKN030 28/25 A2994 RMK AO2 T02790246
KBKS 151515Z AUTO 16005KT 10SM BKN012 BKN021 OVC027 27/25 A2994 RMK AO2 T02710245
KBKS 151455Z AUTO 14007KT 10SM SCT020 OVC027 26/25 A2993 RMK AO2 T02620245
KBKS 151435Z AUTO 16006KT 10SM BKN027 26/25 A2992 RMK AO2 T02580245
KBKS 151415Z AUTO 13005KT 10SM SCT024 BKN028 25/24 A2991 RMK AO2 T02470242
KBKS 151355Z AUTO 00000KT 7SM SCT026 24/24 A2991 RMK AO2 T02370237
KBKS 151335Z AUTO 00000KT 5SM CLR 23/23 A2990 RMK AO2 T02310231
KBKS 151315Z AUTO 00000KT 5SM SCT024 23/23 A2989 RMK AO2 T02260226
KBKS 151255Z AUTO 13003KT 5SM BKN024 23/23 A2988 RMK AO2 T02250225
KBKS 151235Z AUTO 00000KT 7SM BKN024 23/23 A2988 RMK AO2 T02250225
KBKS 151215Z AUTO 11004KT 5SM SCT014 OVC022 23/23 A2987 RMK AO2 T02250225
KBKS 151155Z AUTO 10003KT 5SM SCT014 OVC020 23/23 A2987 RMK AO2 T02250225 10231 20213
KBKS 151135Z AUTO 00000KT 5SM SCT014 OVC019 22/22 A2987 RMK AO2 T02230223
KBKS 151115Z AUTO 00000KT 5SM OVC016 22/22 A2986 RMK AO2 T02200220
KBKS 151055Z AUTO 00000KT 4SM OVC014 22/22 A2985 RMK AO2 T02170217
KBKS 151035Z AUTO 07003KT 3SM OVC012 22/22 A2984 RMK AO2 T02160216
KBKS 151015Z AUTO 00000KT 2SM OVC012 22/22 A2984 RMK AO2 T02150215
KBKS 150955Z AUTO 00000KT 2SM SCT005 OVC012 22/22 A2984 RMK AO2 T02150215
KBKS 150935Z AUTO 00000KT 2 1/2SM 22/22 A2983 RMK AO2 SKY OBSCURED T02160216
KBKS 150915Z AUTO 00000KT 3SM 22/22 A2983 RMK AO2 SKY OBSCURED T02160216
KBKS 150855Z AUTO 07003KT 2 1/2SM 22/22 A2983 RMK AO2 SKY OBSCURED T02170217
KBKS 150835Z AUTO 00000KT 3SM 22/22 A2983 RMK AO2 SKY OBSCURED T02190219
KBKS 150815Z AUTO 00000KT 3SM 22/22 A2983 RMK AO2 SKY OBSCURED T02200220
KBKS 150755Z AUTO 00000KT 4SM CLR 22/22 A2983 RMK AO2 T02220222
KBKS 150735Z AUTO 00000KT 5SM CLR 22/22 A2983 RMK AO2 T02240224
KBKS 150715Z AUTO 00000KT 5SM CLR 23/23 A2983 RMK AO2 T02250225
KBKS 150655Z AUTO 00000KT 7SM CLR 23/23 A2983 RMK AO2 T02280227
KBKS 150635Z AUTO 00000KT 7SM SCT018 23/23 A2983 RMK AO2 T02280227
KBKS 150615Z AUTO 00000KT 7SM SCT018 23/23 A2983 RMK AO2 T02310230